createdAt,value
2023-03-23T15:59:45.768Z,97.10
2023-03-23T16:02:18.678Z,51.10
2023-03-23T16:04:48.109Z,39.10
2023-03-23T16:07:16.874Z,85.70
2023-03-23T16:09:45.757Z,21.30
2023-03-23T16:12:16.468Z,17.70
2023-03-23T16:14:44.887Z,14.20
2023-03-23T16:17:20.928Z,13.60
2023-03-23T16:19:50.044Z,18.50
2023-03-23T16:22:18.787Z,12.50
2023-03-23T16:24:50.258Z,18.80
2023-03-23T16:27:21.501Z,8.90
2023-03-23T16:30:02.807Z,13.70
2023-03-23T16:35:03.870Z,21.00
2023-03-23T16:37:34.757Z,27.60
2023-03-23T16:40:04.189Z,31.00
2023-03-23T16:42:32.838Z,28.00
2023-03-23T16:45:02.125Z,38.00
2023-03-23T16:47:31.061Z,37.40
2023-03-23T16:50:06.730Z,42.90
2023-03-23T16:52:35.442Z,50.10
2023-03-23T16:55:16.651Z,41.60
2023-03-23T16:57:45.290Z,26.30
2023-03-23T17:00:16.177Z,28.10
2023-03-23T17:02:44.837Z,14.40
2023-03-23T17:05:14.213Z,11.70
2023-03-23T17:07:42.536Z,10.00
2023-03-23T17:10:15.839Z,9.10
2023-03-23T17:12:46.142Z,9.20
2023-03-23T17:15:15.295Z,9.00
2023-03-23T17:17:44.658Z,9.00
2023-03-23T17:20:13.547Z,8.90
2023-03-23T17:22:41.938Z,9.40
2023-03-23T17:25:10.989Z,9.30
2023-03-23T17:27:40.078Z,10.20
2023-03-23T17:30:08.891Z,11.70
2023-03-23T17:32:38.236Z,13.20
2023-03-23T17:35:07.151Z,15.10
2023-03-23T17:37:41.668Z,16.60
2023-03-23T17:40:11.093Z,15.80
2023-03-23T17:42:39.503Z,18.30
2023-03-23T17:45:08.532Z,18.80
2023-03-23T17:47:38.682Z,18.90
2023-03-23T17:50:11.673Z,18.80
2023-03-23T17:52:43.523Z,17.80
2023-03-23T17:55:11.909Z,16.30
2023-03-23T17:57:40.361Z,15.40
2023-03-23T18:00:11.459Z,14.70
2023-03-23T18:02:41.040Z,14.40
2023-03-23T18:05:10.831Z,13.60
2023-03-23T18:07:39.799Z,13.20
2023-03-23T18:10:13.756Z,13.50
2023-03-23T18:12:42.742Z,13.40
2023-03-23T18:15:12.454Z,20.60
2023-03-23T18:17:40.769Z,24.60
2023-03-23T18:20:09.253Z,29.80
2023-03-23T18:22:37.942Z,33.40
2023-03-23T18:25:06.352Z,25.50
2023-03-23T18:27:36.124Z,27.00
2023-03-23T18:30:05.438Z,38.80
2023-03-23T18:32:38.180Z,49.40
2023-03-23T18:35:09.154Z,57.60
2023-03-23T18:37:43.035Z,46.60
2023-03-23T18:40:14.636Z,65.30
2023-03-23T18:42:49.234Z,53.30
2023-03-23T18:45:27.107Z,49.40
2023-03-23T18:48:01.518Z,61.20
2023-03-23T18:50:35.401Z,34.40
2023-03-23T18:53:09.248Z,25.00
2023-03-23T18:55:42.753Z,20.40
2023-03-23T18:58:20.373Z,18.60
2023-03-23T19:00:53.880Z,18.90
2023-03-23T19:03:26.921Z,22.90
2023-03-23T19:06:02.028Z,24.10
2023-03-23T19:08:33.791Z,22.50
2023-03-23T19:11:10.842Z,35.00
2023-03-23T19:13:58.061Z,29.10
2023-03-23T19:16:35.815Z,25.30
2023-03-23T19:19:15.393Z,33.30
2023-03-23T19:21:48.458Z,36.80
2023-03-23T19:24:24.963Z,32.60
2023-03-23T19:27:02.942Z,29.90
2023-03-23T19:29:35.990Z,32.50
2023-03-23T19:32:13.715Z,29.70
2023-03-23T19:34:51.079Z,29.80
2023-03-23T19:37:25.680Z,21.40
2023-03-23T19:39:59.275Z,33.50
2023-03-23T19:42:33.623Z,29.40
2023-03-23T19:45:04.747Z,21.80
2023-03-23T19:47:38.294Z,19.20
2023-03-23T19:50:12.860Z,21.40
2023-03-23T19:52:46.359Z,26.80
2023-03-23T19:55:23.089Z,23.10
2023-03-23T19:57:56.574Z,20.80
2023-03-23T20:00:30.096Z,28.50
2023-03-23T20:03:04.514Z,24.70
2023-03-23T20:05:40.683Z,29.50
2023-03-23T20:08:14.976Z,27.40
2023-03-23T20:10:51.630Z,26.90
2023-03-23T20:13:25.306Z,29.60
2023-03-23T20:16:00.706Z,22.00
2023-03-23T20:18:33.130Z,22.80
2023-03-23T20:21:06.803Z,23.30
2023-03-23T20:23:36.222Z,24.10
2023-03-23T20:26:13.199Z,19.30
2023-03-23T20:28:43.284Z,16.00
2023-03-23T20:31:23.766Z,15.30
2023-03-23T20:33:59.923Z,15.10
2023-03-23T20:36:35.164Z,15.00
2023-03-23T20:39:10.559Z,14.90
2023-03-23T20:41:40.316Z,15.00
2023-03-23T20:44:14.143Z,15.80
2023-03-23T20:46:47.664Z,16.40
2023-03-23T20:49:17.787Z,16.10
2023-03-23T20:51:46.640Z,14.90
2023-03-23T20:54:15.779Z,14.50
2023-03-23T20:56:44.745Z,15.20
2023-03-23T20:59:16.047Z,14.50
2023-03-23T21:01:44.934Z,14.20
2023-03-23T21:04:17.915Z,14.70
2023-03-23T21:06:49.215Z,14.70
2023-03-23T21:09:17.895Z,13.70
2023-03-23T21:11:47.531Z,15.10
2023-03-23T21:14:16.674Z,18.00
2023-03-23T21:16:45.534Z,16.60
2023-03-23T21:19:21.651Z,16.80
2023-03-23T21:21:55.866Z,17.30
2023-03-23T21:24:28.494Z,18.80
2023-03-23T21:27:00.017Z,21.00
2023-03-23T21:29:29.238Z,21.20
2023-03-23T21:34:30.787Z,20.00
2023-03-23T21:36:59.874Z,20.90
2023-03-23T21:39:28.301Z,19.30
2023-03-23T21:41:59.695Z,17.10
2023-03-23T21:44:28.205Z,17.70
2023-03-23T21:46:57.076Z,18.10
2023-03-23T21:49:25.860Z,17.40
2023-03-23T21:51:53.987Z,19.60
2023-03-23T21:54:30.570Z,18.10
2023-03-23T21:56:59.318Z,18.30
2023-03-23T21:59:35.411Z,18.10
2023-03-23T22:02:03.877Z,18.10
2023-03-23T22:04:32.520Z,17.90
2023-03-23T22:07:05.256Z,17.60
2023-03-23T22:09:34.603Z,17.20
2023-03-23T22:12:02.823Z,16.80
2023-03-23T22:14:36.360Z,17.30
2023-03-23T22:17:05.782Z,17.50
2023-03-23T22:19:35.834Z,16.10
2023-03-23T22:22:05.993Z,16.60
2023-03-23T22:24:36.865Z,16.60
2023-03-23T22:27:06.232Z,17.50
2023-03-23T22:29:35.031Z,18.20
2023-03-23T22:32:04.344Z,19.60
2023-03-23T22:34:32.781Z,20.60
2023-03-23T22:37:05.665Z,22.10
2023-03-23T22:39:34.914Z,16.70
2023-03-23T22:42:09.771Z,17.20
2023-03-23T22:44:40.177Z,18.40
2023-03-23T22:49:51.790Z,17.10
2023-03-23T22:52:20.188Z,16.80
2023-03-23T22:54:49.173Z,15.40
2023-03-23T22:57:17.928Z,16.70
2023-03-23T22:59:48.784Z,15.50
2023-03-23T23:02:17.127Z,15.40
2023-03-23T23:04:45.756Z,15.20
2023-03-23T23:07:14.571Z,16.20
2023-03-23T23:09:55.556Z,15.40
2023-03-23T23:12:24.283Z,15.60
2023-03-23T23:14:58.681Z,15.90
2023-03-23T23:17:27.973Z,15.80
2023-03-23T23:19:57.498Z,15.90
2023-03-23T23:22:25.774Z,15.80
2023-03-23T23:24:54.558Z,15.10
2023-03-23T23:27:22.884Z,15.00
2023-03-23T23:29:51.186Z,15.80
2023-03-23T23:32:20.835Z,15.40
2023-03-23T23:34:49.238Z,14.70
2023-03-23T23:37:18.009Z,14.60
2023-03-23T23:39:46.137Z,14.90
2023-03-23T23:42:14.996Z,14.30
2023-03-23T23:44:45.462Z,14.50
2023-03-23T23:47:18.600Z,13.90
2023-03-23T23:49:46.964Z,14.30
2023-03-23T23:52:15.726Z,13.70
2023-03-23T23:54:51.562Z,14.20
2023-03-23T23:57:19.817Z,13.40
2023-03-23T23:59:48.091Z,13.80
